Time;durP1;ratioP1;P1;durP2;ratioP2;P2;SDS_P1;SDS_P2;PMS_P1;PMS_P2;Temp;Humidity;BMP_temperature;BMP_pressure;BME280_temperature;BME280_humidity;BME280_pressure;Samples;Min_cycle;Max_cycle;Signal;HPM_P1;HPM_P2
2021/10/20 00:00:51;;;;;;;12.63;6.17;;;;;;;10.65;93.26;96680.44;5000274;28;20222;-71
2021/10/20 00:03:18;;;;;;;11.63;6.67;;;;;;;10.41;93.40;96674.38;4999596;28;20671;-71
2021/10/20 00:05:44;;;;;;;16.07;6.03;;;;;;;10.33;94.07;96667.31;4998957;28;20230;-71
2021/10/20 00:08:11;;;;;;;11.97;6.20;;;;;;;10.28;94.17;96678.50;5000241;28;20210;-72
2021/10/20 00:10:39;;;;;;;11.83;5.83;;;;;;;10.44;94.59;96674.88;4999514;28;20203;-72
2021/10/20 00:13:06;;;;;;;10.60;6.53;;;;;;;10.29;94.24;96670.44;4999227;28;20203;-72
2021/10/20 00:15:32;;;;;;;9.17;5.53;;;;;;;10.29;93.59;96659.88;4998807;28;21076;-71
2021/10/20 00:17:59;;;;;;;10.70;6.03;;;;;;;10.29;93.75;96670.44;5000656;28;20706;-72
2021/10/20 00:20:27;;;;;;;11.07;6.33;;;;;;;10.14;94.02;96661.53;4999176;28;20203;-72
2021/10/20 00:22:56;;;;;;;14.40;6.37;;;;;;;10.32;94.25;96659.56;4999507;28;21418;-72
2021/10/20 00:25:22;;;;;;;11.40;5.67;;;;;;;10.19;94.07;96653.97;4999671;28;20650;-72
2021/10/20 00:27:51;;;;;;;10.27;5.80;;;;;;;10.42;94.12;96650.50;4999158;28;20209;-72
2021/10/20 00:30:17;;;;;;;13.73;6.47;;;;;;;10.21;94.04;96649.38;4997466;28;20836;-71
2021/10/20 00:32:44;;;;;;;10.30;6.00;;;;;;;10.25;93.45;96645.41;4998381;28;20210;-72
2021/10/20 00:35:11;;;;;;;9.73;6.20;;;;;;;10.37;93.15;96647.56;4999333;28;20234;-71
2021/10/20 00:37:38;;;;;;;11.37;6.27;;;;;;;10.31;93.06;96636.84;4998321;28;20253;-72
2021/10/20 00:40:06;;;;;;;9.97;5.90;;;;;;;10.41;93.15;96632.22;4998770;28;20671;-71
2021/10/20 00:42:33;;;;;;;11.33;5.93;;;;;;;10.30;93.70;96635.19;4999046;28;20199;-72
2021/10/20 00:45:02;;;;;;;11.80;6.40;;;;;;;10.48;93.87;96631.38;4995624;28;20226;-72
2021/10/20 00:47:29;;;;;;;8.97;5.53;;;;;;;10.31;94.05;96628.94;4998484;28;20225;-72
2021/10/20 00:49:57;;;;;;;8.63;5.37;;;;;;;10.25;94.19;96620.91;4999238;28;20207;-72
2021/10/20 00:52:26;;;;;;;8.23;5.30;;;;;;;10.30;93.51;96621.19;4998697;28;20213;-72
2021/10/20 00:54:55;;;;;;;8.00;4.50;;;;;;;10.35;93.41;96614.47;4998766;28;20199;-72
2021/10/20 00:57:24;;;;;;;9.50;4.60;;;;;;;10.43;93.02;96609.16;4998274;28;20226;-72
2021/10/20 00:59:52;;;;;;;11.50;5.13;;;;;;;10.32;93.17;96611.31;4998222;28;21114;-72
2021/10/20 01:02:20;;;;;;;9.97;5.43;;;;;;;10.49;93.41;96604.06;4998791;28;20242;-72
2021/10/20 01:04:48;;;;;;;8.83;5.53;;;;;;;10.18;95.01;96602.28;4998305;28;20202;-72
2021/10/20 01:07:15;;;;;;;10.83;5.43;;;;;;;10.32;93.96;96601.59;4997917;28;20202;-71
2021/10/20 01:09:42;;;;;;;6.77;4.50;;;;;;;10.13;93.31;96595.88;4998274;28;20297;-72
2021/10/20 01:12:09;;;;;;;8.40;4.50;;;;;;;10.17;94.01;96590.13;4998483;28;20199;-71
2021/10/20 01:14:35;;;;;;;7.03;4.43;;;;;;;10.18;92.68;96590.94;4998185;28;20667;-71
2021/10/20 01:17:04;;;;;;;9.37;5.00;;;;;;;10.23;92.58;96589.44;4997982;28;20210;-72
2021/10/20 01:19:32;;;;;;;9.23;5.27;;;;;;;10.39;92.62;96581.53;4998367;28;20210;-71
2021/10/20 01:22:00;;;;;;;8.70;5.47;;;;;;;10.30;92.82;96579.03;4998364;28;20202;-71
2021/10/20 01:24:27;;;;;;;11.40;4.93;;;;;;;10.02;92.52;96567.25;4997915;28;20206;-71
2021/10/20 01:26:56;;;;;;;11.07;5.13;;;;;;;10.24;92.47;96567.38;4997964;28;20265;-72
2021/10/20 01:29:23;;;;;;;11.13;4.90;;;;;;;10.05;93.44;96565.09;4999357;28;20207;-72
2021/10/20 01:31:51;;;;;;;8.43;5.37;;;;;;;10.12;92.50;96560.81;4997296;28;20207;-72
2021/10/20 01:34:17;;;;;;;10.57;5.43;;;;;;;9.95;92.61;96553.91;4997787;28;20202;-72
2021/10/20 01:36:45;;;;;;;10.33;5.50;;;;;;;9.99;92.99;96544.72;4998161;28;20222;-71
2021/10/20 01:39:13;;;;;;;11.00;5.10;;;;;;;10.02;92.44;96551.47;4997632;28;20225;-71
2021/10/20 01:41:39;;;;;;;9.63;5.13;;;;;;;9.76;93.32;96548.97;4997671;28;20321;-72
2021/10/20 01:44:06;;;;;;;8.67;4.97;;;;;;;9.79;92.70;96551.25;4998202;28;20203;-71
2021/10/20 01:46:33;;;;;;;11.43;5.33;;;;;;;9.65;93.71;96542.34;4994139;28;20229;-72
2021/10/20 01:49:00;;;;;;;10.07;5.40;;;;;;;9.91;93.40;96534.13;4997959;28;20194;-72
2021/10/20 01:51:27;;;;;;;11.53;5.17;;;;;;;9.93;93.50;96540.06;4997173;28;20218;-71
2021/10/20 01:53:54;;;;;;;9.13;5.30;;;;;;;9.61;93.24;96535.78;4997995;28;20206;-71
2021/10/20 01:56:22;;;;;;;9.20;4.80;;;;;;;9.80;92.91;96538.91;4996983;28;20226;-72
2021/10/20 01:58:49;;;;;;;12.17;4.97;;;;;;;9.49;93.32;96531.84;4997841;28;20228;-72
2021/10/20 02:01:16;;;;;;;8.10;4.50;;;;;;;9.29;94.29;96535.75;4997629;28;20210;-70
2021/10/20 02:03:45;;;;;;;14.10;5.57;;;;;;;9.20;94.90;96537.56;4997497;28;20207;-72
2021/10/20 02:06:14;;;;;;;10.63;5.07;;;;;;;9.65;95.22;96537.94;4996696;28;20233;-71
2021/10/20 02:08:43;;;;;;;10.73;5.30;;;;;;;9.48;94.91;96535.44;4993275;28;20206;-71
2021/10/20 02:11:09;;;;;;;15.20;5.20;;;;;;;9.66;92.95;96526.44;4997202;28;21098;-71
2021/10/20 02:13:37;;;;;;;11.73;5.70;;;;;;;9.90;92.24;96531.66;4997610;28;20670;-72
2021/10/20 02:16:04;;;;;;;10.47;5.73;;;;;;;9.63;92.50;96524.13;4996984;28;20222;-72
2021/10/20 02:18:31;;;;;;;9.63;5.43;;;;;;;9.49;91.91;96511.59;4997237;28;20226;-71
2021/10/20 02:20:57;;;;;;;11.70;5.83;;;;;;;9.46;91.85;96511.94;4997839;28;20206;-71
2021/10/20 02:23:24;;;;;;;10.73;5.90;;;;;;;9.58;92.25;96510.63;4997827;28;20202;-72
2021/10/20 02:25:51;;;;;;;8.83;5.03;;;;;;;9.49;92.16;96511.59;4996448;28;20226;-71
2021/10/20 02:28:17;;;;;;;10.50;5.60;;;;;;;9.67;93.36;96508.81;4997206;28;20207;-72
2021/10/20 02:30:45;;;;;;;9.27;5.50;;;;;;;9.77;93.68;96510.28;4997870;28;20203;-71
2021/10/20 02:33:12;;;;;;;9.67;5.60;;;;;;;9.62;92.52;96505.88;4996487;28;20875;-72
2021/10/20 02:35:38;;;;;;;9.30;4.87;;;;;;;9.63;92.12;96512.78;4996338;28;20809;-71
2021/10/20 02:38:05;;;;;;;8.23;5.00;;;;;;;9.67;91.55;96495.66;4997826;28;20234;-72
2021/10/20 02:40:32;;;;;;;8.77;5.33;;;;;;;9.66;91.49;96500.13;4996557;28;20567;-72
2021/10/20 02:42:59;;;;;;;12.00;6.17;;;;;;;9.49;92.12;96495.00;4996586;28;20236;-71
2021/10/20 02:45:25;;;;;;;9.43;4.73;;;;;;;9.59;92.05;96495.69;4994477;28;20226;-72
2021/10/20 02:47:53;;;;;;;10.40;5.30;;;;;;;9.79;92.09;96487.28;4996908;28;20586;-71
2021/10/20 02:50:21;;;;;;;11.70;5.60;;;;;;;9.54;91.40;96476.94;4996594;28;20206;-71
2021/10/20 02:52:47;;;;;;;10.10;5.63;;;;;;;9.63;91.17;96483.84;4997253;28;20714;-72
2021/10/20 02:55:13;;;;;;;11.43;5.87;;;;;;;9.63;91.29;96471.50;4997476;28;20222;-71
2021/10/20 02:57:40;;;;;;;12.80;6.07;;;;;;;9.64;91.23;96467.88;4995619;28;20210;-71
2021/10/20 03:00:07;;;;;;;9.90;6.07;;;;;;;9.78;89.51;96460.13;4997304;28;20202;-72
2021/10/20 03:02:34;;;;;;;11.03;6.07;;;;;;;9.47;89.63;96461.00;4997140;28;20210;-72
2021/10/20 03:05:02;;;;;;;8.93;5.20;;;;;;;9.68;89.65;96454.22;4996609;28;20225;-71
2021/10/20 03:07:28;;;;;;;10.63;5.47;;;;;;;9.26;89.91;96447.50;4996325;28;20222;-71
2021/10/20 03:09:55;;;;;;;7.77;4.60;;;;;;;9.36;90.00;96447.34;4996390;28;20948;-71
2021/10/20 03:12:21;;;;;;;10.07;4.70;;;;;;;9.30;91.00;96445.38;4997071;28;20220;-71
2021/10/20 03:14:48;;;;;;;7.03;4.30;;;;;;;9.31;91.48;96433.88;4997070;28;20217;-71
2021/10/20 03:17:16;;;;;;;8.50;4.83;;;;;;;9.28;92.08;96429.75;4996451;28;20304;-71
2021/10/20 03:19:43;;;;;;;10.23;4.57;;;;;;;9.25;90.92;96424.00;4996362;28;20226;-71
2021/10/20 03:22:11;;;;;;;9.63;4.60;;;;;;;9.38;89.99;96424.31;4998471;28;20204;-72
2021/10/20 03:24:37;;;;;;;12.63;5.07;;;;;;;9.14;89.59;96421.72;5000598;28;20214;-71
2021/10/20 03:27:04;;;;;;;10.23;4.47;;;;;;;9.03;88.90;96416.75;5000396;28;20203;-72
2021/10/20 03:29:31;;;;;;;7.90;4.03;;;;;;;8.90;88.19;96415.63;5000080;28;20213;-72
2021/10/20 03:31:57;;;;;;;8.60;4.50;;;;;;;8.63;93.37;96421.13;5000311;28;20209;-72
2021/10/20 03:34:23;;;;;;;9.73;4.27;;;;;;;8.70;92.59;96406.38;5000673;28;20205;-71
2021/10/20 03:36:50;;;;;;;9.63;4.60;;;;;;;8.67;92.01;96406.72;4999777;28;20877;-72
2021/10/20 03:39:18;;;;;;;7.33;4.60;;;;;;;8.85;92.92;96410.03;5000047;28;20222;-71
2021/10/20 03:41:44;;;;;;;8.70;4.83;;;;;;;8.60;93.21;96409.16;5000636;28;20213;-71
2021/10/20 03:44:11;;;;;;;13.97;5.50;;;;;;;8.51;93.63;96412.75;5000847;28;20202;-72
2021/10/20 03:46:37;;;;;;;10.70;5.30;;;;;;;8.50;93.24;96413.72;4996223;28;20234;-71
2021/10/20 03:49:04;;;;;;;8.73;5.67;;;;;;;8.53;93.46;96415.22;5000057;28;20206;-71
2021/10/20 03:51:30;;;;;;;10.10;5.10;;;;;;;8.59;94.22;96423.25;5000302;28;20205;-71
2021/10/20 03:53:56;;;;;;;11.83;5.20;;;;;;;8.59;94.85;96420.63;4999729;28;20237;-71
2021/10/20 03:56:24;;;;;;;9.17;5.27;;;;;;;8.81;95.33;96413.97;5000463;28;20223;-70
2021/10/20 03:58:51;;;;;;;11.53;6.13;;;;;;;8.65;95.65;96414.72;5000140;28;20225;-71
2021/10/20 04:01:17;;;;;;;10.37;5.37;;;;;;;8.78;93.83;96409.84;4999798;28;20213;-72
2021/10/20 04:03:44;;;;;;;13.10;5.60;;;;;;;8.75;93.17;96404.09;5000125;28;20226;-71
2021/10/20 04:06:10;;;;;;;11.17;5.50;;;;;;;8.89;92.90;96409.53;4999511;28;20226;-72
2021/10/20 04:08:36;;;;;;;10.63;5.40;;;;;;;8.92;92.14;96411.00;4999299;28;20209;-71
2021/10/20 04:11:03;;;;;;;11.03;5.93;;;;;;;8.89;92.45;96406.88;5000433;28;20203;-71
2021/10/20 04:13:31;;;;;;;10.47;5.80;;;;;;;9.18;92.64;96408.06;5000015;28;20659;-72
2021/10/20 04:15:57;;;;;;;10.90;5.57;;;;;;;8.96;92.39;96407.91;4999033;28;20226;-72
2021/10/20 04:18:24;;;;;;;13.67;6.23;;;;;;;9.02;92.25;96414.31;4999544;28;20226;-71
2021/10/20 04:20:50;;;;;;;13.10;6.30;;;;;;;8.99;92.31;96412.00;4999625;28;20214;-71
2021/10/20 04:23:17;;;;;;;12.47;6.13;;;;;;;9.03;92.50;96416.75;4999737;28;20218;-71
2021/10/20 04:25:43;;;;;;;15.53;6.23;;;;;;;9.02;92.83;96412.47;4999006;28;20253;-72
2021/10/20 04:28:10;;;;;;;18.90;7.83;;;;;;;9.03;92.90;96408.88;4999645;28;20202;-72
2021/10/20 04:30:38;;;;;;;15.27;7.27;;;;;;;9.35;92.96;96404.44;4999872;28;20207;-71
2021/10/20 04:33:05;;;;;;;11.97;6.47;;;;;;;9.10;92.44;96404.63;4998238;28;20225;-72
2021/10/20 04:35:31;;;;;;;14.57;6.80;;;;;;;8.92;91.70;96396.03;4998087;28;20234;-71
2021/10/20 04:37:58;;;;;;;9.93;5.80;;;;;;;8.93;89.37;96392.44;4999983;28;20206;-71
2021/10/20 04:40:24;;;;;;;11.07;5.73;;;;;;;8.97;88.79;96391.13;4999807;28;21023;-73
2021/10/20 04:42:51;;;;;;;13.97;6.27;;;;;;;8.94;90.20;96388.84;4998963;28;20206;-71
2021/10/20 04:45:17;;;;;;;13.07;6.43;;;;;;;8.87;90.27;96387.00;4996016;28;20776;-71
2021/10/20 04:47:45;;;;;;;9.87;5.70;;;;;;;9.08;89.16;96387.38;4998860;28;20213;-71
2021/10/20 04:50:12;;;;;;;11.80;5.57;;;;;;;8.75;90.79;96378.63;4998936;28;20198;-71
2021/10/20 04:52:39;;;;;;;10.77;5.50;;;;;;;8.73;90.55;96377.97;4999421;28;20206;-70
2021/10/20 04:55:07;;;;;;;9.27;5.10;;;;;;;8.83;90.19;96362.84;4999496;28;20225;-71
2021/10/20 04:57:34;;;;;;;10.60;5.40;;;;;;;8.79;87.70;96358.91;4997987;28;20210;-71
2021/10/20 05:00:01;;;;;;;10.63;4.87;;;;;;;8.75;86.54;96357.59;4998824;28;20222;-72
2021/10/20 05:02:34;;;;;;;11.70;6.00;;;;;;;8.53;89.20;96346.94;4998827;28;20203;-71
2021/10/20 05:05:03;;;;;;;14.20;5.83;;;;;;;8.73;89.17;96349.09;4998292;28;20222;-71
2021/10/20 05:07:29;;;;;;;13.23;6.40;;;;;;;8.46;89.11;96337.22;4998118;28;20203;-71
2021/10/20 05:09:56;;;;;;;15.17;7.03;;;;;;;8.52;90.04;96340.03;4999824;28;20756;-71
2021/10/20 05:12:23;;;;;;;15.70;7.00;;;;;;;8.64;88.93;96339.56;4998667;28;20199;-71
2021/10/20 05:14:49;;;;;;;13.90;6.40;;;;;;;8.66;88.81;96340.19;4998343;28;20234;-71
2021/10/20 05:17:16;;;;;;;22.43;8.70;;;;;;;8.67;90.01;96330.53;4998790;28;20206;-72
2021/10/20 05:19:42;;;;;;;23.00;8.53;;;;;;;8.68;90.38;96321.63;4999474;28;20237;-71
2021/10/20 05:22:10;;;;;;;14.53;6.67;;;;;;;8.71;89.64;96323.97;4998713;28;20426;-71
2021/10/20 05:24:36;;;;;;;16.87;7.10;;;;;;;8.61;88.78;96318.84;4998963;28;20206;-71
2021/10/20 05:27:03;;;;;;;18.80;6.63;;;;;;;8.56;89.01;96321.13;4998279;28;20207;-71
2021/10/20 05:29:32;;;;;;;20.60;8.90;;;;;;;8.60;90.58;96311.97;4998618;28;20209;-71
2021/10/20 05:31:59;;;;;;;20.63;8.77;;;;;;;8.72;90.25;96309.84;4998899;28;20628;-72
2021/10/20 05:34:26;;;;;;;22.63;9.23;;;;;;;8.74;90.77;96307.88;5000960;28;20307;-71
2021/10/20 05:36:52;;;;;;;20.90;8.67;;;;;;;8.72;90.72;96309.84;5010261;28;20317;-71
2021/10/20 05:39:20;;;;;;;17.40;7.43;;;;;;;8.96;89.40;96304.56;5003990;28;20219;-71
2021/10/20 05:41:46;;;;;;;17.67;7.53;;;;;;;8.52;89.95;96303.25;5010476;28;20206;-71
2021/10/20 05:44:14;;;;;;;14.40;6.40;;;;;;;8.49;91.97;96300.97;5008237;28;20214;-71
2021/10/20 05:46:40;;;;;;;12.37;5.37;;;;;;;8.46;92.37;96303.91;5007655;28;20219;-71
2021/10/20 05:49:07;;;;;;;13.07;5.53;;;;;;;8.45;91.93;96309.31;5009709;28;20202;-71
2021/10/20 05:51:33;;;;;;;11.53;5.40;;;;;;;8.58;92.32;96311.31;5009075;28;20206;-71
2021/10/20 05:54:00;;;;;;;14.07;5.33;;;;;;;8.60;92.15;96311.97;5008185;28;20577;-71
2021/10/20 05:56:28;;;;;;;10.63;5.17;;;;;;;8.74;92.23;96308.66;5008127;28;20246;-70
2021/10/20 05:58:54;;;;;;;14.63;5.90;;;;;;;8.28;93.80;96315.53;5007942;28;20230;-71
2021/10/20 06:01:23;;;;;;;10.30;5.90;;;;;;;8.31;94.15;96320.44;5008640;28;20214;-71
2021/10/20 06:03:49;;;;;;;14.40;5.90;;;;;;;8.55;93.63;96324.78;5007649;28;20431;-71
2021/10/20 06:06:16;;;;;;;15.43;5.43;;;;;;;8.62;92.63;96319.69;5009101;28;20226;-70
2021/10/20 06:08:42;;;;;;;15.07;5.43;;;;;;;8.65;92.25;96328.03;5008408;28;20213;-71
2021/10/20 06:11:09;;;;;;;12.17;5.73;;;;;;;8.60;92.48;96324.25;5009539;28;20203;-71
2021/10/20 06:13:37;;;;;;;14.20;6.00;;;;;;;8.87;93.80;96326.56;5004961;28;20206;-71
2021/10/20 06:16:03;;;;;;;11.00;5.80;;;;;;;8.75;93.98;96331.34;5010398;28;20238;-71
2021/10/20 06:18:30;;;;;;;12.90;5.60;;;;;;;8.81;92.62;96329.88;5008764;28;20206;-70
2021/10/20 06:20:57;;;;;;;10.90;6.00;;;;;;;8.93;92.38;96323.31;5009048;28;20556;-70
2021/10/20 06:23:23;;;;;;;13.53;6.40;;;;;;;9.03;92.25;96330.03;5006493;28;20234;-71
2021/10/20 06:25:50;;;;;;;14.50;6.67;;;;;;;9.04;92.41;96331.69;5005802;28;20230;-71
2021/10/20 06:28:16;;;;;;;13.33;6.87;;;;;;;9.19;92.31;96330.84;5009631;28;20680;-70
2021/10/20 06:30:44;;;;;;;21.27;7.50;;;;;;;9.47;93.08;96320.75;5009196;28;20202;-71
2021/10/20 06:33:11;;;;;;;13.47;8.00;;;;;;;9.38;92.67;96325.22;5008889;28;20235;-70
2021/10/20 06:35:37;;;;;;;18.47;9.20;;;;;;;9.44;92.41;96329.78;5006512;28;20257;-71
2021/10/20 06:38:03;;;;;;;14.63;8.67;;;;;;;9.62;92.14;96332.22;5003970;28;20229;-71
2021/10/20 06:40:31;;;;;;;21.77;9.80;;;;;;;9.66;92.79;96328.25;5009298;28;20233;-71
2021/10/20 06:42:57;;;;;;;19.90;10.03;;;;;;;9.72;93.51;96323.97;4998483;28;20297;-71
2021/10/20 06:45:24;;;;;;;17.40;10.33;;;;;;;9.90;93.32;96316.69;5007341;28;20584;-71
2021/10/20 06:47:52;;;;;;;22.90;9.90;;;;;;;10.09;94.53;96311.00;5008392;28;20214;-71
2021/10/20 06:50:19;;;;;;;19.93;9.73;;;;;;;10.09;95.52;96320.72;5009161;28;20202;-71
2021/10/20 06:52:46;;;;;;;18.23;9.40;;;;;;;10.19;95.62;96316.88;5009062;28;20202;-71
2021/10/20 06:55:13;;;;;;;26.17;9.73;;;;;;;10.46;95.40;96321.66;5008559;28;20233;-71
2021/10/20 06:57:41;;;;;;;21.37;9.30;;;;;;;10.78;95.13;96316.19;5006966;28;20214;-70
2021/10/20 07:00:09;;;;;;;16.17;8.47;;;;;;;10.93;94.51;96311.78;5007506;28;20698;-71
2021/10/20 07:02:36;;;;;;;17.73;8.73;;;;;;;10.89;94.85;96315.78;5008116;28;20206;-71
2021/10/20 07:05:05;;;;;;;18.93;9.57;;;;;;;11.18;94.68;96317.47;5006506;28;20258;-71
2021/10/20 07:07:31;;;;;;;20.83;8.83;;;;;;;11.02;94.78;96315.00;5006650;28;20198;-71
2021/10/20 07:09:58;;;;;;;20.60;9.67;;;;;;;11.16;94.85;96322.13;5006435;28;20203;-71
2021/10/20 07:12:24;;;;;;;19.23;8.77;;;;;;;11.09;95.77;96318.56;5004856;28;20203;-71
2021/10/20 07:14:51;;;;;;;21.43;10.27;;;;;;;11.29;95.73;96316.22;5006176;28;20210;-71
2021/10/20 07:17:17;;;;;;;23.83;10.13;;;;;;;11.37;95.76;96316.97;5006774;28;20584;-71
2021/10/20 07:19:44;;;;;;;19.80;8.83;;;;;;;11.54;95.32;96317.66;5004274;28;20276;-71
2021/10/20 07:22:11;;;;;;;16.87;9.17;;;;;;;11.69;95.91;96312.19;5006403;28;20694;-71
2021/10/20 07:24:39;;;;;;;21.67;8.60;;;;;;;11.83;94.60;96313.22;5005556;28;20787;-71
2021/10/20 07:27:06;;;;;;;20.63;8.67;;;;;;;11.83;95.30;96313.22;5003253;28;20209;-71
2021/10/20 07:29:32;;;;;;;19.17;8.90;;;;;;;11.95;95.63;96314.38;5007406;28;20205;-71
2021/10/20 07:32:00;;;;;;;22.10;8.63;;;;;;;12.37;94.37;96308.22;5006083;28;20233;-71
2021/10/20 07:34:26;;;;;;;14.70;7.20;;;;;;;12.35;94.17;96314.69;5003411;28;20202;-71
2021/10/20 07:36:55;;;;;;;14.80;8.70;;;;;;;12.61;92.87;96310.50;5003820;28;20233;-71
2021/10/20 07:39:23;;;;;;;16.93;8.60;;;;;;;12.93;93.02;96310.03;5004143;28;20346;-71
2021/10/20 07:41:49;;;;;;;14.67;8.17;;;;;;;12.60;93.45;96306.25;5004922;28;20214;-71
2021/10/20 07:44:16;;;;;;;15.23;8.43;;;;;;;12.91;92.72;96309.44;5003895;28;20217;-71
2021/10/20 07:46:43;;;;;;;19.70;8.27;;;;;;;12.96;93.07;96309.69;5002238;28;20230;-71
2021/10/20 07:49:10;;;;;;;12.87;7.07;;;;;;;12.97;92.83;96311.31;5004277;28;20709;-71
2021/10/20 07:51:37;;;;;;;14.30;8.43;;;;;;;13.35;91.25;96308.16;5003409;28;20234;-71
2021/10/20 07:54:03;;;;;;;16.27;8.60;;;;;;;13.29;91.95;96313.41;5003241;28;20210;-71
2021/10/20 07:56:33;;;;;;;16.70;8.60;;;;;;;13.92;89.52;96319.38;5003031;28;20226;-71
2021/10/20 07:59:00;;;;;;;17.23;8.60;;;;;;;13.67;89.93;96310.22;5004945;28;20243;-71
2021/10/20 08:01:26;;;;;;;17.63;7.80;;;;;;;13.83;89.58;96310.75;5002772;28;20608;-71
2021/10/20 08:03:53;;;;;;;14.63;8.70;;;;;;;13.92;89.29;96304.28;5003113;28;21123;-71
2021/10/20 08:06:19;;;;;;;15.13;8.57;;;;;;;14.02;88.98;96310.03;5002612;28;20218;-72
2021/10/20 08:08:46;;;;;;;16.23;7.53;;;;;;;14.11;87.36;96303.59;5005076;28;20202;-71
2021/10/20 08:11:12;;;;;;;18.20;8.35;;;;;;;14.32;86.67;96298.19;5006662;28;21009;-71
2021/10/20 08:13:40;;;;;;;14.90;6.70;;;;;;;14.46;86.25;96289.25;5007673;28;20587;-71
2021/10/20 08:16:06;;;;;;;20.50;8.18;;;;;;;14.56;86.10;96297.66;5004848;28;20233;-72
2021/10/20 08:18:33;;;;;;;16.42;7.47;;;;;;;14.44;86.60;96292.09;5006442;28;20207;-71
2021/10/20 08:20:59;;;;;;;15.32;7.55;;;;;;;14.59;86.52;96286.63;5008241;28;20222;-72
2021/10/20 08:23:28;;;;;;;14.70;8.18;;;;;;;14.69;84.80;96291.38;5006388;28;20203;-72
2021/10/20 08:25:55;;;;;;;13.90;7.95;;;;;;;14.70;84.19;96287.69;5004146;28;20218;-71
2021/10/20 08:28:21;;;;;;;14.50;7.18;;;;;;;14.81;85.08;96284.44;5005011;28;20217;-71
2021/10/20 08:30:49;;;;;;;13.23;7.53;;;;;;;15.11;84.39;96288.38;5005597;28;20203;-71
2021/10/20 08:33:16;;;;;;;14.10;7.70;;;;;;;15.10;84.27;96277.97;5004545;28;20198;-71
2021/10/20 08:35:42;;;;;;;12.35;6.70;;;;;;;15.15;83.88;96273.69;5004569;28;20289;-71
2021/10/20 08:38:09;;;;;;;15.10;7.50;;;;;;;15.18;84.16;96264.50;5004041;28;20213;-71
2021/10/20 08:40:38;;;;;;;13.93;6.97;;;;;;;15.42;83.23;96259.41;5004385;28;20237;-71
2021/10/20 08:43:05;;;;;;;10.25;4.18;;;;;;;15.36;82.01;96261.03;5004036;28;20206;-70
2021/10/20 08:45:32;;;;;;;14.68;7.10;;;;;;;15.60;82.72;96263.03;5001538;28;20241;-71
2021/10/20 08:48:00;;;;;;;18.10;6.95;;;;;;;16.04;81.82;96250.66;5002646;28;20224;-71
2021/10/20 08:50:29;;;;;;;13.10;7.55;;;;;;;15.85;80.62;96256.84;5004122;28;20206;-71
2021/10/20 08:52:56;;;;;;;15.18;8.38;;;;;;;15.73;80.89;96252.38;5003733;28;20206;-71
2021/10/20 08:55:24;;;;;;;11.75;6.65;;;;;;;15.85;79.51;96235.59;5003468;28;20218;-71
2021/10/20 08:57:52;;;;;;;12.82;6.57;;;;;;;15.86;79.45;96231.91;5002023;28;20221;-71
2021/10/20 09:00:20;;;;;;;14.77;7.05;;;;;;;15.95;80.18;96230.66;5003085;28;20237;-71
2021/10/20 09:02:47;;;;;;;9.88;5.40;;;;;;;15.72;79.86;96223.38;5001773;28;20211;-71
2021/10/20 09:05:17;;;;;;;10.38;4.43;;;;;;;15.92;78.73;96220.47;5000816;28;20674;-71
2021/10/20 09:07:45;;;;;;;7.90;4.32;;;;;;;16.21;78.06;96216.44;4999828;28;20690;-71
2021/10/20 09:10:12;;;;;;;12.90;5.35;;;;;;;16.34;77.90;96213.75;5000412;28;20206;-71
2021/10/20 09:12:40;;;;;;;8.90;5.10;;;;;;;16.30;77.22;96223.19;5001247;28;20411;-71
2021/10/20 09:15:09;;;;;;;14.43;6.35;;;;;;;16.80;76.31;96217.75;5000934;28;20305;-71
2021/10/20 09:17:44;;;;;;;8.70;4.55;;;;;;;16.99;75.42;96219.47;4999940;28;20210;-71
2021/10/20 09:20:25;;;;;;;13.13;6.07;;;;;;;17.35;75.23;96215.06;5000325;28;20222;-71
2021/10/20 09:22:59;;;;;;;10.25;5.43;;;;;;;17.28;74.99;96209.00;5001276;28;20210;-71
2021/10/20 09:25:27;;;;;;;14.07;5.38;;;;;;;17.19;75.03;96216.41;5000020;28;20236;-71
2021/10/20 09:27:54;;;;;;;12.25;5.60;;;;;;;17.33;74.18;96217.16;4999218;28;20214;-71
2021/10/20 09:30:21;;;;;;;11.63;5.72;;;;;;;17.41;73.03;96215.03;5000382;28;20207;-72
2021/10/20 09:32:50;;;;;;;11.38;5.40;;;;;;;17.62;73.52;96213.81;5000735;28;20253;-71
2021/10/20 09:35:16;;;;;;;9.73;4.22;;;;;;;17.30;72.50;96212.28;4998775;28;20786;-71
2021/10/20 09:37:44;;;;;;;11.70;5.93;;;;;;;17.84;72.18;96211.28;4999246;28;21088;-71
2021/10/20 09:40:13;;;;;;;12.30;5.55;;;;;;;17.90;71.37;96207.75;4999645;28;20223;-71
2021/10/20 09:42:44;;;;;;;13.05;5.85;;;;;;;18.25;71.80;96197.31;4998098;28;20210;-71
2021/10/20 09:45:13;;;;;;;11.63;5.03;;;;;;;18.01;71.36;96200.84;4995861;28;20281;-71
2021/10/20 09:47:39;;;;;;;7.95;4.40;;;;;;;18.01;71.02;96198.19;4998697;28;20207;-71
2021/10/20 09:50:08;;;;;;;10.25;5.43;;;;;;;18.44;70.29;96191.69;4998504;28;20229;-71
2021/10/20 09:52:46;;;;;;;9.77;5.13;;;;;;;18.76;71.41;96190.41;4998279;28;20202;-71
2021/10/20 09:55:14;;;;;;;12.23;4.72;;;;;;;18.39;69.61;96186.22;4999111;28;20230;-71
2021/10/20 09:57:40;;;;;;;9.57;5.15;;;;;;;18.32;70.71;96193.50;4997732;28;20643;-71
2021/10/20 10:00:08;;;;;;;9.55;4.97;;;;;;;18.45;70.04;96196.00;4999024;28;20730;-71
2021/10/20 10:02:34;;;;;;;8.50;4.80;;;;;;;18.22;70.86;96197.75;4999900;28;20202;-71
2021/10/20 10:05:01;;;;;;;7.03;4.22;;;;;;;18.25;70.35;96182.09;4998730;28;20231;-71
2021/10/20 10:07:28;;;;;;;10.20;4.80;;;;;;;18.43;69.84;96174.06;4997197;28;20664;-71
2021/10/20 10:09:56;;;;;;;11.00;5.70;;;;;;;18.68;69.17;96169.38;4998087;28;20202;-71
2021/10/20 10:12:27;;;;;;;6.32;3.65;;;;;;;18.61;69.25;96172.16;4998117;28;20294;-71
2021/10/20 10:14:58;;;;;;;8.77;4.93;;;;;;;18.85;69.16;96163.16;4998167;28;20218;-71
2021/10/20 10:17:25;;;;;;;9.43;5.15;;;;;;;18.65;68.86;96159.97;4998014;28;20206;-71
2021/10/20 10:19:52;;;;;;;7.68;5.05;;;;;;;18.71;68.55;96158.25;4998908;28;20675;-71
2021/10/20 10:22:23;;;;;;;6.05;3.83;;;;;;;18.86;68.53;96146.09;4995582;28;20209;-71
2021/10/20 10:24:50;;;;;;;10.65;5.38;;;;;;;18.70;69.48;96153.94;4998013;28;20211;-71
2021/10/20 10:27:18;;;;;;;9.02;4.05;;;;;;;18.72;69.46;96149.19;4997543;28;20202;-71
2021/10/20 10:29:52;;;;;;;10.23;4.80;;;;;;;19.13;68.61;96140.13;4997163;28;20221;-71
2021/10/20 10:32:20;;;;;;;9.65;4.65;;;;;;;18.86;69.39;96134.59;4996606;28;20211;-71
2021/10/20 10:34:49;;;;;;;9.30;4.65;;;;;;;19.31;70.03;96137.34;4998173;28;20210;-71
2021/10/20 10:37:26;;;;;;;8.07;4.85;;;;;;;19.50;67.77;96130.81;4997253;28;20206;-71
2021/10/20 10:39:53;;;;;;;7.93;4.53;;;;;;;18.97;67.98;96122.06;4998012;28;20203;-71
2021/10/20 10:42:31;;;;;;;7.95;4.68;;;;;;;19.22;67.45;96117.34;4997898;28;20217;-71
2021/10/20 10:45:11;;;;;;;6.28;3.65;;;;;;;19.13;66.09;96118.75;4997744;28;20226;-71
2021/10/20 10:47:55;;;;;;;6.97;3.83;;;;;;;19.30;65.65;96108.97;4996595;28;20206;-71
2021/10/20 10:50:22;;;;;;;8.65;4.25;;;;;;;18.97;65.92;96107.91;4997329;28;20211;-71
2021/10/20 10:52:53;;;;;;;7.43;4.20;;;;;;;19.19;64.85;96100.97;4997951;28;20202;-71
2021/10/20 10:55:21;;;;;;;8.63;3.90;;;;;;;19.13;65.70;96101.88;4997538;28;20993;-71
2021/10/20 10:57:55;;;;;;;6.13;3.75;;;;;;;19.59;64.82;96092.00;4997762;28;20198;-71
2021/10/20 11:00:32;;;;;;;7.22;4.22;;;;;;;19.80;64.84;96078.78;4997079;28;20249;-71
2021/10/20 11:02:59;;;;;;;9.15;4.35;;;;;;;19.54;64.87;96083.88;4997043;28;20205;-71
2021/10/20 11:05:27;;;;;;;5.93;3.55;;;;;;;19.78;64.24;96091.59;4997157;28;20645;-71
2021/10/20 11:07:59;;;;;;;8.02;3.80;;;;;;;19.90;64.03;96087.00;4997556;28;20675;-71
2021/10/20 11:10:25;;;;;;;6.60;3.75;;;;;;;19.79;64.50;96081.69;4997195;28;20260;-71
2021/10/20 11:12:55;;;;;;;11.32;4.22;;;;;;;20.23;64.79;96069.22;4997461;28;20198;-71
2021/10/20 11:15:22;;;;;;;9.68;4.10;;;;;;;19.56;63.80;96067.59;4997043;28;20218;-71
2021/10/20 11:17:49;;;;;;;6.78;3.92;;;;;;;19.75;64.42;96067.97;4997308;28;20683;-70
2021/10/20 11:20:18;;;;;;;5.05;2.92;;;;;;;19.74;63.74;96066.38;4996530;28;20202;-71
2021/10/20 11:22:46;;;;;;;7.47;4.03;;;;;;;19.93;63.32;96059.81;4996646;28;20203;-71
2021/10/20 11:25:14;;;;;;;9.50;4.10;;;;;;;20.06;63.81;96056.03;4997433;28;20226;-71
2021/10/20 11:27:46;;;;;;;5.78;3.70;;;;;;;20.32;63.61;96050.91;4995876;28;20210;-71
2021/10/20 11:30:16;;;;;;;8.23;4.03;;;;;;;20.25;63.42;96056.41;4997111;28;20247;-71
2021/10/20 11:32:44;;;;;;;8.02;4.35;;;;;;;20.26;62.81;96039.31;4996802;28;20217;-71